Time;durP1;ratioP1;P1;durP2;ratioP2;P2;SDS_P1;SDS_P2;PMS_P1;PMS_P2;Temp;Humidity;BMP_temperature;BMP_pressure;BME280_temperature;BME280_humidity;BME280_pressure;Samples;Min_cycle;Max_cycle;Signal;HPM_P1;HPM_P2
2022/01/29 04:30:30;;;;;;;17.25;10.55;;;;;;;6.48;57.80;100198.66;8418106;22;20216;31
2022/01/29 05:27:00;;;;;;;11.53;9.17;;;;;;;7.12;56.73;100166.47;6881683;28;20291;-84
2022/01/29 05:34:05;;;;;;;13.57;11.13;;;;;;;6.96;57.60;100155.59;6866234;28;20712;-84
2022/01/29 06:34:36;;;;;;;22.10;15.17;;;;;;;7.40;57.23;100201.19;6863547;28;20227;-83
2022/01/29 06:38:00;;;;;;;23.90;15.27;;;;;;;7.38;57.18;100197.78;6864231;28;20247;-81
2022/01/29 06:41:26;;;;;;;23.93;15.93;;;;;;;7.30;56.73;100130.66;6865553;28;20232;-85
2022/01/29 06:44:47;;;;;;;24.60;15.83;;;;;;;7.69;56.48;100209.03;6915320;28;20666;-88
2022/01/29 06:48:10;;;;;;;22.83;15.50;;;;;;;7.23;57.78;100225.28;6891879;28;20211;-86
2022/01/29 06:51:33;;;;;;;22.40;16.23;;;;;;;6.50;58.13;100140.44;6895833;28;20233;-90
2022/01/29 06:54:58;;;;;;;26.37;15.57;;;;;;;6.72;57.46;100094.47;6904302;28;20221;-89
2022/01/29 06:58:20;;;;;;;22.03;15.73;;;;;;;7.55;56.54;100182.72;6901106;28;20292;-88
2022/01/29 07:01:45;;;;;;;24.13;16.07;;;;;;;7.89;56.01;100232.06;6901662;28;20248;-89
2022/01/29 07:05:09;;;;;;;22.37;15.90;;;;;;;7.68;55.94;100169.75;6902774;28;20258;-89
2022/01/29 07:08:37;;;;;;;25.63;15.50;;;;;;;7.83;56.31;100209.34;6899777;28;20283;-87
2022/01/29 07:12:08;;;;;;;20.77;15.93;;;;;;;7.07;56.66;100107.13;6903416;28;20234;-88
2022/01/29 07:15:30;;;;;;;24.87;17.73;;;;;;;7.08;56.77;100080.13;6900876;28;20206;-88
2022/01/29 07:18:52;;;;;;;24.83;17.37;;;;;;;7.47;56.45;100126.28;6900772;28;20207;-87
2022/01/29 07:22:14;;;;;;;21.73;15.67;;;;;;;7.88;55.46;100128.31;6898216;28;20676;-87
2022/01/29 07:25:44;;;;;;;23.37;16.27;;;;;;;8.20;55.03;100179.66;6895748;28;20224;-86
2022/01/29 07:29:08;;;;;;;25.70;16.90;;;;;;;8.17;54.62;100198.72;6896483;28;20205;-87
2022/01/29 08:12:10;;;;;;;15.50;10.67;;;;;;;7.40;53.19;99972.28;6808370;23;20236;-82
2022/01/29 08:15:32;;;;;;;10.07;7.53;;;;;;;7.60;51.59;100024.78;6969291;28;20232;-84
2022/01/29 08:18:54;;;;;;;11.97;8.63;;;;;;;8.53;51.37;100141.22;6970129;28;20198;-82
2022/01/29 08:22:16;;;;;;;8.97;6.13;;;;;;;7.96;51.79;100136.44;6966453;28;20216;-82
2022/01/29 08:25:39;;;;;;;9.90;6.83;;;;;;;8.01;51.38;100058.94;6965947;28;20214;-82
2022/01/29 08:29:02;;;;;;;8.40;6.77;;;;;;;8.64;50.96;100116.75;6978626;28;20574;-82
2022/01/29 08:32:24;;;;;;;9.67;7.07;;;;;;;8.72;50.82;100114.09;6962954;28;20235;-83
2022/01/29 08:35:46;;;;;;;7.23;6.20;;;;;;;8.51;50.87;100122.56;6950970;28;20284;-83
2022/01/29 08:39:08;;;;;;;7.00;6.30;;;;;;;8.71;50.40;100121.31;6966525;28;20210;-83
2022/01/29 08:42:30;;;;;;;6.43;5.70;;;;;;;8.44;50.10;100078.50;6961047;28;20238;-83
2022/01/29 08:45:53;;;;;;;5.40;4.70;;;;;;;7.52;49.16;99928.94;6955554;28;20217;-83
2022/01/29 08:49:15;;;;;;;6.13;3.80;;;;;;;8.21;49.47;100037.09;6960580;28;20203;-82
2022/01/29 08:52:37;;;;;;;5.90;4.03;;;;;;;8.69;49.19;100127.84;6977609;28;20212;-83
2022/01/29 08:55:59;;;;;;;4.63;4.00;;;;;;;8.34;48.40;100007.94;6983323;28;20204;-83
2022/01/29 08:59:21;;;;;;;4.27;3.87;;;;;;;8.25;48.51;100008.06;6983727;28;20233;-83
2022/01/29 09:02:44;;;;;;;4.63;3.90;;;;;;;8.25;48.50;100018.81;6983834;28;20213;-83
2022/01/29 09:06:06;;;;;;;5.77;4.10;;;;;;;8.05;48.44;99985.94;6983433;28;20206;-83
2022/01/29 09:09:28;;;;;;;6.83;4.37;;;;;;;8.49;47.78;100016.22;6983126;28;20206;-83
2022/01/29 09:12:49;;;;;;;6.27;4.50;;;;;;;7.87;48.63;99979.81;6970443;28;20223;-83
2022/01/29 09:16:12;;;;;;;4.93;3.77;;;;;;;8.86;48.24;100105.41;6955451;28;20551;-83
2022/01/29 09:19:35;;;;;;;4.63;4.20;;;;;;;8.36;48.51;100034.66;6955698;28;20559;-83
2022/01/29 09:22:57;;;;;;;6.77;3.90;;;;;;;9.44;47.36;100096.28;6964705;28;20203;-83
2022/01/29 09:26:18;;;;;;;6.00;4.97;;;;;;;7.83;47.83;99865.66;6965938;28;20263;-83
2022/01/29 09:29:40;;;;;;;5.93;4.37;;;;;;;8.76;47.59;100027.56;6968513;28;20210;-83
2022/01/29 09:33:02;;;;;;;5.40;4.47;;;;;;;8.84;47.51;100045.59;6933102;28;20219;-83
2022/01/29 09:36:26;;;;;;;4.70;4.17;;;;;;;9.24;47.37;100049.19;6955110;28;20206;-83
2022/01/29 09:39:48;;;;;;;5.60;4.53;;;;;;;9.44;46.96;100055.91;6954290;28;20578;-84
2022/01/29 09:43:11;;;;;;;5.43;4.43;;;;;;;9.16;46.86;99992.69;6965819;28;20226;-84
2022/01/29 09:46:33;;;;;;;5.47;4.20;;;;;;;8.74;47.37;99973.13;6970643;28;20266;-84
2022/01/29 09:49:55;;;;;;;5.27;4.10;;;;;;;9.49;46.92;100005.09;6965001;28;20772;-84
2022/01/29 09:53:19;;;;;;;5.90;4.20;;;;;;;8.18;47.95;99923.69;6970540;28;20221;-85
2022/01/29 09:56:41;;;;;;;4.33;3.93;;;;;;;9.67;47.24;100098.19;6966604;28;20203;-94
2022/01/29 10:00:05;;;;;;;5.80;4.87;;;;;;;9.84;46.94;100042.44;6955219;28;20203;-86
2022/01/29 10:03:27;;;;;;;7.50;4.67;;;;;;;10.12;46.18;100006.03;6953896;28;20210;-83
2022/01/29 10:07:12;;;;;;;6.53;4.67;;;;;;;10.57;47.31;100090.63;6954251;28;20214;-85
2022/01/29 10:10:40;;;;;;;5.53;4.37;;;;;;;10.07;45.86;99949.13;6954586;28;20588;-83
2022/01/29 10:14:03;;;;;;;4.27;3.87;;;;;;;10.28;46.25;99917.06;6954146;28;20275;-83
2022/01/29 10:17:51;;;;;;;6.27;3.97;;;;;;;10.87;45.93;100067.44;6954351;28;20214;-82
2022/01/29 10:21:15;;;;;;;4.93;4.43;;;;;;;10.58;46.41;100062.66;6971816;28;20287;-80
2022/01/29 10:24:50;;;;;;;7.93;4.30;;;;;;;10.23;46.50;99949.06;6980739;28;20201;-81
2022/01/29 10:28:16;;;;;;;73.37;31.17;;;;;;;10.96;47.71;100047.47;6980903;28;20220;-83
2022/01/29 10:31:42;;;;;;;20.03;9.73;;;;;;;10.76;47.45;99955.38;6980928;28;20211;-81
2022/01/29 10:35:13;;;;;;;5.07;4.53;;;;;;;10.83;46.56;100004.03;6980666;28;20230;-82
2022/01/29 10:38:50;;;;;;;6.70;5.07;;;;;;;10.79;46.63;100016.19;6980898;28;20202;-79
2022/01/29 10:42:17;;;;;;;5.70;4.20;;;;;;;11.15;46.69;100034.34;6980776;28;20235;-80
2022/01/29 10:45:41;;;;;;;6.90;4.80;;;;;;;10.75;47.27;100055.34;6981128;28;20210;-81
2022/01/29 10:49:03;;;;;;;5.53;5.03;;;;;;;10.72;47.19;100031.41;6981056;28;20202;-82
2022/01/29 10:52:31;;;;;;;5.43;4.67;;;;;;;10.41;47.29;99979.31;6981244;28;20205;-83
2022/01/29 10:55:59;;;;;;;4.80;4.20;;;;;;;10.68;46.19;99943.78;6981346;28;20222;-84
2022/01/29 10:59:21;;;;;;;5.97;4.30;;;;;;;10.88;46.22;99980.91;6980892;28;20212;-86
2022/01/29 11:02:45;;;;;;;5.40;4.80;;;;;;;9.79;48.40;99967.53;6980429;28;20228;-85
2022/01/29 11:06:08;;;;;;;8.37;4.70;;;;;;;9.77;48.73;99898.69;6979706;28;20202;-85
2022/01/29 11:09:30;;;;;;;4.90;4.17;;;;;;;11.03;47.67;100029.56;6980451;28;20214;-87
2022/01/29 11:12:53;;;;;;;5.00;4.50;;;;;;;11.33;46.95;100017.88;6980469;28;20209;-86
2022/01/29 11:16:15;;;;;;;5.73;4.83;;;;;;;10.38;47.52;99910.41;6979904;28;20233;-87
2022/01/29 11:19:39;;;;;;;4.80;4.13;;;;;;;10.63;47.97;99954.28;6982046;28;20206;-83
2022/01/29 11:23:01;;;;;;;5.70;5.10;;;;;;;10.56;46.41;99830.06;6964870;28;20203;-83
2022/01/29 11:26:23;;;;;;;7.37;5.20;;;;;;;10.50;47.02;99916.25;6979477;28;20231;-83
2022/01/29 11:29:56;;;;;;;5.30;4.33;;;;;;;9.57;48.32;99803.19;6979713;28;20211;-84
2022/01/29 11:33:18;;;;;;;4.80;3.97;;;;;;;10.32;46.94;99805.13;6980580;28;20220;-83
2022/01/29 11:37:07;;;;;;;4.60;3.87;;;;;;;11.69;47.25;99994.63;6972782;28;20206;-83
2022/01/29 11:40:31;;;;;;;4.70;4.03;;;;;;;10.47;48.70;99903.97;6971001;28;20230;-88
2022/01/29 11:43:54;;;;;;;4.47;4.03;;;;;;;10.99;47.33;99896.00;6953987;28;20216;-84
2022/01/29 11:47:48;;;;;;;4.90;4.13;;;;;;;11.57;47.97;99999.59;6976146;28;20221;-82
2022/01/29 11:51:12;;;;;;;5.47;4.27;;;;;;;10.61;47.32;99826.84;6978469;28;20232;-84
2022/01/29 11:54:59;;;;;;;4.30;3.87;;;;;;;11.57;46.97;99915.84;6978568;28;20280;-82
2022/01/29 11:58:23;;;;;;;5.90;4.10;;;;;;;10.93;48.23;99869.75;6978774;28;20210;-84
2022/01/29 12:01:45;;;;;;;4.23;3.90;;;;;;;10.75;48.92;99842.25;6979766;28;20210;-86
2022/01/29 12:05:08;;;;;;;4.33;3.93;;;;;;;10.81;48.21;99815.38;6978856;28;20214;-82
2022/01/29 12:08:37;;;;;;;6.63;4.40;;;;;;;10.74;49.05;99852.19;6979395;28;20625;-82
2022/01/29 12:12:18;;;;;;;4.50;3.80;;;;;;;11.81;48.68;99976.97;6978877;28;20214;-82
2022/01/29 12:15:40;;;;;;;4.80;4.23;;;;;;;11.54;49.20;99937.84;6982557;28;20226;-82
2022/01/29 12:19:02;;;;;;;3.60;3.30;;;;;;;11.60;49.54;99966.88;6984775;28;20232;-83
2022/01/29 12:22:26;;;;;;;4.17;3.47;;;;;;;11.27;50.37;99961.91;6978839;28;20225;-82
2022/01/29 12:25:58;;;;;;;3.50;3.20;;;;;;;11.12;51.25;99929.47;6978322;28;20202;-82
2022/01/29 12:29:22;;;;;;;4.00;3.30;;;;;;;10.10;52.23;99822.97;6976299;28;20213;-81
2022/01/29 12:32:59;;;;;;;4.90;3.20;;;;;;;10.28;53.14;99896.31;6984012;28;20206;-82
2022/01/29 12:36:21;;;;;;;2.63;2.43;;;;;;;10.51;52.79;99913.38;6958966;28;20223;-80
2022/01/29 12:39:44;;;;;;;3.43;3.10;;;;;;;10.82;53.00;99938.47;6972515;28;20202;-80
2022/01/29 12:43:21;;;;;;;3.27;2.97;;;;;;;11.00;52.15;99930.91;6983346;28;20259;-80
2022/01/29 12:46:47;;;;;;;3.63;3.33;;;;;;;11.27;52.21;99916.00;6980021;28;20202;-81
2022/01/29 12:50:09;;;;;;;3.17;2.87;;;;;;;9.81;53.10;99720.41;6969054;28;20225;-81
2022/01/29 12:53:31;;;;;;;4.20;3.05;;;;;;;11.09;53.11;99918.19;6981654;28;20213;-80
2022/01/29 12:56:56;;;;;;;3.07;2.70;;;;;;;10.69;52.70;99867.25;6974346;28;20222;-81
2022/01/29 13:00:22;;;;;;;3.20;2.90;;;;;;;10.49;52.85;99842.59;6982552;28;20228;-80
2022/01/29 13:03:46;;;;;;;3.47;3.17;;;;;;;10.91;52.48;99885.25;6983327;28;20198;-80
2022/01/29 13:07:09;;;;;;;3.60;2.87;;;;;;;10.39;51.56;99768.38;6982588;28;20409;-80
2022/01/29 13:10:34;;;;;;;3.20;2.67;;;;;;;10.25;51.23;99713.41;6982815;28;20206;-80
2022/01/29 13:13:56;;;;;;;3.17;2.90;;;;;;;10.66;52.02;99802.84;6982893;28;20230;-80
2022/01/29 13:17:21;;;;;;;3.63;3.20;;;;;;;10.92;51.08;99814.94;6969362;28;20227;-80
2022/01/29 13:20:45;;;;;;;3.30;3.00;;;;;;;10.16;51.79;99768.38;6975052;28;20210;-82
2022/01/29 13:24:29;;;;;;;3.33;3.03;;;;;;;10.62;52.41;99858.19;6980760;28;20206;-80
2022/01/29 13:27:54;;;;;;;2.90;2.70;;;;;;;10.10;53.07;99777.16;6971774;28;20255;-80
2022/01/29 13:31:17;;;;;;;2.77;2.57;;;;;;;10.20;52.57;99766.16;6978071;28;20202;-80
2022/01/29 13:34:41;;;;;;;3.17;2.80;;;;;;;10.53;51.79;99736.06;6981689;28;20226;-82
2022/01/29 13:38:23;;;;;;;2.80;2.50;;;;;;;11.21;51.99;99863.56;6982663;28;20215;-81
2022/01/29 13:41:45;;;;;;;3.40;3.10;;;;;;;11.33;51.63;99847.78;6982154;28;20248;-81
2022/01/29 13:45:10;;;;;;;2.57;2.37;;;;;;;11.46;51.27;99834.47;6982052;28;20209;-81
2022/01/29 13:48:43;;;;;;;3.33;2.90;;;;;;;10.63;51.97;99768.19;6982424;28;20193;-81
2022/01/29 13:52:16;;;;;;;4.07;2.80;;;;;;;10.78;52.96;99841.88;6982029;28;20206;-81
2022/01/29 13:55:42;;;;;;;2.60;2.40;;;;;;;10.55;52.15;99768.22;6981782;28;20723;-81
2022/01/29 13:59:04;;;;;;;2.60;2.40;;;;;;;10.13;52.82;99755.25;6981812;28;20210;-81
2022/01/29 14:02:26;;;;;;;2.50;2.30;;;;;;;10.94;51.49;99798.56;6981930;28;20210;-81
2022/01/29 14:05:48;;;;;;;2.63;2.43;;;;;;;10.72;51.62;99740.94;6969839;28;20557;-81
2022/01/29 14:09:22;;;;;;;2.67;2.47;;;;;;;11.23;51.46;99834.53;6952852;28;20214;-81
2022/01/29 14:12:49;;;;;;;3.43;2.23;;;;;;;10.01;52.70;99710.00;6953125;28;20348;-81
2022/01/29 14:16:11;;;;;;;3.70;2.43;;;;;;;10.91;52.56;99826.75;6953665;28;20240;-81
2022/01/29 14:19:35;;;;;;;2.83;2.60;;;;;;;10.11;52.96;99732.22;6954504;28;20209;-81
2022/01/29 14:22:57;;;;;;;3.17;2.30;;;;;;;10.75;51.68;99735.16;6953450;28;20203;-80
2022/01/29 14:26:18;;;;;;;2.70;2.50;;;;;;;10.16;52.63;99724.44;6953760;28;20214;-80
2022/01/29 14:29:44;;;;;;;4.90;4.50;;;;;;;10.55;51.30;99709.75;6953757;28;20202;-80
2022/01/29 14:33:09;;;;;;;2.93;2.53;;;;;;;10.79;52.35;99776.94;6957348;28;20229;-82
2022/01/29 14:36:31;;;;;;;2.67;2.43;;;;;;;10.68;53.23;99785.47;6954635;28;20683;-80
2022/01/29 14:39:54;;;;;;;2.40;2.20;;;;;;;9.79;51.85;99546.56;6974939;28;20203;-79
2022/01/29 14:43:15;;;;;;;2.40;2.17;;;;;;;10.01;52.96;99669.59;6981873;28;20206;-79
2022/01/29 14:46:39;;;;;;;2.90;2.60;;;;;;;10.90;52.97;99772.97;6981377;28;20233;-79
2022/01/29 14:50:06;;;;;;;4.30;2.53;;;;;;;11.22;51.95;99751.03;6981026;28;20246;-80
2022/01/29 14:53:28;;;;;;;2.73;2.50;;;;;;;11.01;51.67;99681.63;6981730;28;20198;-79
2022/01/29 14:56:50;;;;;;;2.40;2.20;;;;;;;10.78;51.41;99667.38;6981098;28;20234;-79
2022/01/29 15:00:13;;;;;;;2.27;2.17;;;;;;;11.04;51.91;99705.50;6974474;28;20199;-80
2022/01/29 15:03:43;;;;;;;2.73;2.53;;;;;;;11.50;51.41;99773.63;6978479;28;20210;-80
2022/01/29 15:07:06;;;;;;;2.80;2.60;;;;;;;10.70;50.75;99566.84;6981451;28;20544;-87
2022/01/29 15:10:33;;;;;;;2.63;2.43;;;;;;;11.64;50.98;99762.03;6980885;28;20213;-82
2022/01/29 15:13:55;;;;;;;2.30;2.10;;;;;;;11.30;51.06;99770.69;6980989;28;20186;-83
2022/01/29 15:17:17;;;;;;;2.60;2.40;;;;;;;11.42;50.10;99704.38;6980282;28;20585;-83
2022/01/29 15:20:48;;;;;;;2.30;2.10;;;;;;;10.79;51.37;99706.81;6960690;28;20205;-85
2022/01/29 15:24:10;;;;;;;2.60;2.40;;;;;;;10.70;52.64;99774.50;6966776;28;20230;-85
2022/01/29 15:27:32;;;;;;;2.67;2.40;;;;;;;9.47;53.99;99620.38;6967226;28;20206;-82
2022/01/29 15:30:57;;;;;;;2.37;2.27;;;;;;;9.72;52.70;99611.09;6961561;28;20217;-84
2022/01/29 15:34:19;;;;;;;2.87;2.60;;;;;;;10.91;52.45;99796.22;6977143;28;20206;-84
2022/01/29 15:37:42;;;;;;;2.80;2.50;;;;;;;9.37;53.77;99614.34;6978405;28;20218;-84
2022/01/29 15:41:05;;;;;;;2.67;2.47;;;;;;;10.01;52.66;99661.50;6970580;28;20566;-81
2022/01/29 15:44:27;;;;;;;2.73;2.43;;;;;;;11.02;51.86;99752.59;6970238;28;20217;-83
2022/01/29 15:47:49;;;;;;;2.80;2.60;;;;;;;10.13;54.05;99775.97;6970805;28;20206;-82
2022/01/29 15:51:11;;;;;;;2.90;2.60;;;;;;;10.47;53.87;99825.78;6984040;28;20311;-82
2022/01/29 15:54:35;;;;;;;3.77;2.77;;;;;;;9.94;54.86;99782.66;6983976;28;20229;-83
2022/01/29 15:57:56;;;;;;;4.10;3.07;;;;;;;9.93;54.51;99761.25;6984442;28;20214;-82
2022/01/29 16:01:19;;;;;;;3.33;2.90;;;;;;;9.91;54.43;99734.50;6984900;28;20289;-82
2022/01/29 16:04:41;;;;;;;3.50;2.73;;;;;;;9.22;56.03;99717.53;6959570;28;20209;-82
2022/01/29 16:08:03;;;;;;;3.03;2.57;;;;;;;9.46;55.50;99733.59;6957401;28;20689;-84
2022/01/29 16:11:26;;;;;;;3.50;3.20;;;;;;;9.29;54.25;99616.25;6957472;28;20223;-82
2022/01/29 16:14:48;;;;;;;2.70;2.50;;;;;;;9.69;54.84;99696.78;6957029;28;20227;-82
2022/01/29 16:18:10;;;;;;;4.80;3.10;;;;;;;10.33;54.32;99748.38;6973330;28;20220;-81
2022/01/29 16:21:32;;;;;;;3.17;2.87;;;;;;;10.61;53.88;99797.16;6984225;28;20222;-81
2022/01/29 16:24:53;;;;;;;5.40;4.23;;;;;;;10.38;54.94;99794.50;6983924;28;20222;-80
2022/01/29 16:28:16;;;;;;;5.57;3.97;;;;;;;10.26;54.39;99701.59;6984139;28;20684;-84
2022/01/29 16:31:38;;;;;;;3.47;3.17;;;;;;;10.35;54.65;99715.84;6984649;28;20564;-81
2022/01/29 16:35:00;;;;;;;3.07;2.87;;;;;;;10.79;53.74;99801.22;6983143;28;20225;-81
2022/01/29 16:38:23;;;;;;;3.37;2.90;;;;;;;9.46;54.59;99650.13;6981616;28;20586;-81
2022/01/29 16:41:44;;;;;;;2.83;2.60;;;;;;;9.99;55.25;99741.69;6981839;28;20209;-80
2022/01/29 16:45:10;;;;;;;3.10;2.80;;;;;;;10.17;54.67;99764.66;6977594;28;20238;-80
2022/01/29 16:48:32;;;;;;;3.33;3.03;;;;;;;9.21;54.68;99584.84;6977525;28;20210;-80
2022/01/29 16:51:54;;;;;;;2.80;2.60;;;;;;;10.46;54.44;99772.03;6955382;28;20207;-79
2022/01/29 16:55:16;;;;;;;2.87;2.57;;;;;;;10.19;54.54;99772.56;6979794;28;20233;-81
2022/01/29 16:58:38;;;;;;;3.43;2.80;;;;;;;10.16;55.26;99773.75;6981690;28;20206;-81
2022/01/29 17:02:01;;;;;;;3.10;2.80;;;;;;;8.76;55.49;99556.19;6981583;28;20289;-81
2022/01/29 17:05:23;;;;;;;3.50;3.20;;;;;;;9.55;56.77;99770.19;6979236;28;20221;-85
2022/01/29 17:08:45;;;;;;;3.17;2.90;;;;;;;9.77;55.87;99727.19;6980267;28;20213;-84
2022/01/29 17:12:08;;;;;;;3.07;2.77;;;;;;;9.72;55.90;99717.94;6979624;28;20216;-84
2022/01/29 17:15:30;;;;;;;4.10;2.63;;;;;;;8.79;55.91;99569.28;6985127;28;20588;-85
2022/01/29 17:18:56;;;;;;;2.70;2.50;;;;;;;9.87;56.84;99770.88;6982308;28;20217;-82
2022/01/29 17:22:18;;;;;;;3.30;3.00;;;;;;;9.50;55.53;99651.47;6981280;28;20209;-78
2022/01/29 17:25:40;;;;;;;3.50;2.80;;;;;;;9.88;55.36;99694.47;6981339;28;20210;-79
2022/01/29 17:29:01;;;;;;;3.57;3.27;;;;;;;9.78;53.98;99620.28;6981322;28;20217;-80
2022/01/29 17:32:23;;;;;;;3.50;2.93;;;;;;;10.56;54.28;99753.75;6975543;28;20210;-79
2022/01/29 17:35:46;;;;;;;4.27;3.07;;;;;;;9.79;55.24;99687.44;6976843;28;20230;-79
2022/01/29 17:39:08;;;;;;;3.93;3.03;;;;;;;10.50;55.01;99757.19;6971257;28;20214;-79
2022/01/29 17:42:30;;;;;;;3.20;2.90;;;;;;;9.31;56.00;99627.69;6971142;28;20213;-79
2022/01/29 17:45:52;;;;;;;3.70;2.80;;;;;;;9.56;54.94;99610.38;6980293;28;20240;-79
2022/01/29 17:49:13;;;;;;;2.93;2.63;;;;;;;10.54;54.97;99753.94;6979559;28;20575;-81
2022/01/29 17:52:36;;;;;;;3.20;2.90;;;;;;;10.60;54.44;99757.75;6980790;28;20212;-82
2022/01/29 17:55:58;;;;;;;2.63;2.43;;;;;;;10.22;54.07;99648.25;6980714;28;20226;-82
2022/01/29 17:59:20;;;;;;;2.70;2.50;;;;;;;10.83;54.16;99766.63;6980742;28;20220;-82
2022/01/29 18:02:42;;;;;;;2.70;2.50;;;;;;;10.29;54.00;99722.81;6980931;28;20686;-81
2022/01/29 18:06:04;;;;;;;2.53;2.33;;;;;;;10.28;53.47;99686.06;6979839;28;20668;-83
2022/01/29 18:09:27;;;;;;;2.70;2.50;;;;;;;9.72;53.58;99597.63;6981042;28;20213;-82
2022/01/29 18:12:49;;;;;;;2.20;2.10;;;;;;;10.52;54.07;99752.44;6979905;28;20217;-82
2022/01/29 18:16:11;;;;;;;2.50;2.30;;;;;;;11.05;53.22;99790.84;6979811;28;20226;-79
2022/01/29 18:19:33;;;;;;;2.73;2.30;;;;;;;10.99;53.01;99751.09;6980033;28;20210;-81
2022/01/29 18:22:54;;;;;;;2.20;2.10;;;;;;;10.88;52.26;99661.72;6980497;28;20206;-79
2022/01/29 18:26:17;;;;;;;3.03;2.53;;;;;;;11.44;52.14;99795.97;6968499;28;20211;-81
2022/01/29 18:29:39;;;;;;;3.10;2.60;;;;;;;11.17;51.48;99724.59;6980103;28;20202;-81
2022/01/29 18:33:01;;;;;;;2.50;2.30;;;;;;;11.48;52.03;99789.19;6979289;28;20209;-82
2022/01/29 18:36:23;;;;;;;2.57;2.37;;;;;;;10.58;51.44;99633.88;6977516;28;20726;-81
2022/01/29 18:39:47;;;;;;;3.93;2.77;;;;;;;10.62;52.65;99709.88;6980248;28;20648;-81
2022/01/29 18:43:14;;;;;;;10.90;7.23;;;;;;;10.47;52.71;99682.03;6976414;28;20242;-80
2022/01/29 18:46:36;;;;;;;6.90;4.90;;;;;;;11.06;53.24;99781.75;6951711;28;20201;-80
2022/01/29 18:49:57;;;;;;;2.70;2.33;;;;;;;10.63;53.16;99669.22;6952064;28;20214;-80
2022/01/29 18:53:19;;;;;;;3.10;2.20;;;;;;;9.89;53.61;99584.84;6954160;28;20210;-88
2022/01/29 18:56:41;;;;;;;2.83;2.63;;;;;;;11.29;52.44;99733.91;6952100;28;20250;-88
2022/01/29 19:00:06;;;;;;;3.67;2.03;;;;;;;10.81;53.18;99693.97;6953200;28;20691;-89
2022/01/29 19:03:28;;;;;;;2.20;2.00;;;;;;;11.31;53.53;99771.50;6962715;28;20691;-88
2022/01/29 19:06:49;;;;;;;2.13;1.97;;;;;;;11.33;53.05;99759.50;6979953;28;20206;-87
2022/01/29 19:10:13;;;;;;;2.20;2.10;;;;;;;11.04;52.32;99632.66;6980328;28;20202;-87
2022/01/29 19:13:35;;;;;;;2.03;1.93;;;;;;;10.94;53.24;99685.25;6979426;28;20212;-88
2022/01/29 19:17:00;;;;;;;2.20;2.00;;;;;;;11.61;52.70;99754.28;6980119;28;20230;-88
2022/01/29 19:20:23;;;;;;;1.83;1.73;;;;;;;11.07;54.23;99707.00;6980361;28;20213;-87
2022/01/29 19:23:45;;;;;;;2.10;2.00;;;;;;;10.46;53.85;99572.53;6977912;28;20198;-83
2022/01/29 19:27:07;;;;;;;1.83;1.73;;;;;;;11.13;53.53;99633.38;6978259;28;20209;-82
2022/01/29 19:30:29;;;;;;;2.47;2.07;;;;;;;10.83;54.66;99666.81;6978940;28;20210;-83
2022/01/29 19:33:52;;;;;;;4.37;2.93;;;;;;;11.40;54.64;99757.72;6977970;28;20561;-82
2022/01/29 19:37:15;;;;;;;2.00;1.90;;;;;;;11.31;54.88;99729.16;6977093;28;20253;-80
2022/01/29 19:40:37;;;;;;;2.50;2.20;;;;;;;11.59;54.42;99718.53;6978340;28;20209;-80
2022/01/29 19:43:58;;;;;;;2.93;2.73;;;;;;;10.75;53.83;99583.31;6978171;28;20202;-80
2022/01/29 19:47:20;;;;;;;2.50;2.40;;;;;;;10.72;54.61;99643.00;6978312;28;20656;-81
2022/01/29 19:50:43;;;;;;;1.90;1.80;;;;;;;10.44;55.87;99625.75;6978448;28;20206;-80
2022/01/29 19:54:05;;;;;;;2.00;1.90;;;;;;;10.92;55.61;99725.88;6978233;28;20245;-80
2022/01/29 19:57:27;;;;;;;2.10;2.00;;;;;;;11.09;55.77;99740.06;6978136;28;20235;-85
2022/01/29 20:00:54;;;;;;;2.73;2.53;;;;;;;10.65;55.64;99687.91;6970344;28;20206;-82
2022/01/29 20:04:16;;;;;;;3.40;2.20;;;;;;;10.45;55.72;99627.47;6977908;28;20229;-82
2022/01/29 20:07:40;;;;;;;2.20;2.10;;;;;;;11.22;55.44;99718.66;6978870;28;20210;-81
2022/01/29 20:11:01;;;;;;;3.83;3.53;;;;;;;10.44;56.21;99682.38;6977671;28;20217;-81
2022/01/29 20:14:23;;;;;;;1.70;1.60;;;;;;;10.15;55.78;99588.84;6977838;28;20624;-81
2022/01/29 20:17:45;;;;;;;2.00;1.90;;;;;;;10.64;56.76;99707.81;6978419;28;20234;-81
2022/01/29 20:21:07;;;;;;;3.80;2.93;;;;;;;10.62;56.27;99693.69;6978071;28;20206;-83
2022/01/29 20:24:31;;;;;;;1.80;1.70;;;;;;;10.84;56.37;99701.72;6977647;28;20217;-81
2022/01/29 20:27:53;;;;;;;5.83;3.97;;;;;;;10.72;56.75;99724.75;6978005;28;20217;-81
2022/01/29 20:31:15;;;;;;;1.90;1.80;;;;;;;10.13;57.04;99617.84;6977979;28;20206;-81
2022/01/29 20:34:37;;;;;;;2.03;1.83;;;;;;;10.28;57.21;99615.16;6978189;28;20214;-82
2022/01/29 20:37:59;;;;;;;1.80;1.70;;;;;;;10.43;58.10;99635.72;6981506;28;20271;-82
2022/01/29 20:41:22;;;;;;;2.00;1.80;;;;;;;10.65;58.67;99710.34;6982220;28;20555;-82
2022/01/29 20:44:44;;;;;;;2.50;2.40;;;;;;;9.93;58.85;99619.31;6982452;28;20213;-81
2022/01/29 20:48:06;;;;;;;2.23;2.13;;;;;;;9.25;59.86;99532.38;6982834;28;20205;-82
2022/01/29 20:51:28;;;;;;;1.90;1.80;;;;;;;10.30;60.47;99724.47;6982520;28;20244;-86
2022/01/29 20:54:53;;;;;;;6.00;4.33;;;;;;;9.76;61.06;99641.19;6981397;28;20213;-80
2022/01/29 20:58:17;;;;;;;2.63;2.37;;;;;;;10.80;59.29;99731.94;6982431;28;20283;-81
2022/01/29 21:01:39;;;;;;;2.87;2.17;;;;;;;10.47;59.64;99696.38;6983539;28;20202;-92
2022/01/29 21:05:01;;;;;;;4.37;3.77;;;;;;;10.19;59.19;99640.50;6985525;28;20206;-94
2022/01/29 21:08:24;;;;;;;4.20;3.37;;;;;;;10.18;60.14;99706.22;6985965;28;20213;-93
2022/01/29 21:11:45;;;;;;;4.50;3.50;;;;;;;9.83;59.99;99597.19;6983143;28;20217;-84
2022/01/29 21:15:10;;;;;;;3.00;2.70;;;;;;;9.66;61.10;99645.97;6984374;28;20210;-82
2022/01/29 21:18:32;;;;;;;2.40;2.20;;;;;;;9.48;62.41;99648.94;6982507;28;20226;-88
2022/01/29 21:22:00;;;;;;;2.10;1.90;;;;;;;9.22;63.54;99624.19;6981337;28;20213;-82
2022/01/29 21:25:23;;;;;;;2.27;2.17;;;;;;;9.80;63.14;99693.69;6983732;28;20257;-92
2022/01/29 21:28:46;;;;;;;2.13;2.03;;;;;;;9.17;63.27;99594.28;6985177;28;20296;-93
2022/01/29 21:32:10;;;;;;;2.33;2.13;;;;;;;8.93;64.32;99619.63;6985946;28;20211;-94
2022/01/29 21:35:32;;;;;;;2.50;2.30;;;;;;;9.34;64.08;99641.63;6983276;28;20218;-91
2022/01/29 21:38:58;;;;;;;1.80;1.70;;;;;;;8.74;63.02;99508.00;6983983;28;20239;-93
2022/01/29 21:42:19;;;;;;;1.90;1.80;;;;;;;9.77;61.34;99611.38;6985251;28;20218;-94
2022/01/29 21:45:42;;;;;;;2.10;2.00;;;;;;;9.16;62.11;99581.03;6985333;28;20209;-92
2022/01/29 21:49:07;;;;;;;2.50;1.90;;;;;;;10.03;62.23;99745.72;6984489;28;20700;-94
2022/01/29 21:52:29;;;;;;;1.80;1.70;;;;;;;9.73;62.07;99647.75;6985158;28;20214;-94
2022/01/29 21:55:54;;;;;;;1.80;1.70;;;;;;;10.47;59.92;99676.63;6987738;28;20208;-93
2022/01/29 21:59:20;;;;;;;2.20;2.10;;;;;;;10.21;61.45;99722.03;6985934;28;20249;-94
